sensor_id;sensor_type;location;lat;lon;timestamp;temperature;humidity
33594;DHT22;19920;52.242;20.940;2023-04-01T00:02:18;10.90;99.90
33594;DHT22;19920;52.242;20.940;2023-04-01T00:04:44;10.80;99.90
33594;DHT22;19920;52.242;20.940;2023-04-01T00:07:10;10.80;99.90
33594;DHT22;19920;52.242;20.940;2023-04-01T00:09:36;10.70;99.90
33594;DHT22;19920;52.242;20.940;2023-04-01T00:12:03;10.70;99.90
33594;DHT22;19920;52.242;20.940;2023-04-01T00:14:28;10.80;99.90
33594;DHT22;19920;52.242;20.940;2023-04-01T00:16:55;10.80;99.90
33594;DHT22;19920;52.242;20.940;2023-04-01T00:19:20;10.80;99.90
33594;DHT22;19920;52.242;20.940;2023-04-01T00:21:46;10.70;99.90
33594;DHT22;19920;52.242;20.940;2023-04-01T00:24:13;10.70;99.90
33594;DHT22;19920;52.242;20.940;2023-04-01T00:26:39;10.70;99.90
33594;DHT22;19920;52.242;20.940;2023-04-01T00:29:06;10.70;99.90
33594;DHT22;19920;52.242;20.940;2023-04-01T00:31:32;10.70;99.90
33594;DHT22;19920;52.242;20.940;2023-04-01T00:33:57;10.60;99.90
33594;DHT22;19920;52.242;20.940;2023-04-01T00:36:24;10.60;99.90
33594;DHT22;19920;52.242;20.940;2023-04-01T00:38:50;10.60;99.90
33594;DHT22;19920;52.242;20.940;2023-04-01T00:41:18;10.50;99.90
33594;DHT22;19920;52.242;20.940;2023-04-01T00:43:46;10.50;99.90
33594;DHT22;19920;52.242;20.940;2023-04-01T00:46:12;10.50;99.90
33594;DHT22;19920;52.242;20.940;2023-04-01T00:51:17;10.40;99.90
33594;DHT22;19920;52.242;20.940;2023-04-01T00:53:47;10.40;99.90
33594;DHT22;19920;52.242;20.940;2023-04-01T00:56:17;10.40;99.90
33594;DHT22;19920;52.242;20.940;2023-04-01T00:58:48;10.50;99.90
33594;DHT22;19920;52.242;20.940;2023-04-01T01:01:15;10.50;99.90
33594;DHT22;19920;52.242;20.940;2023-04-01T01:03:40;10.50;99.90
33594;DHT22;19920;52.242;20.940;2023-04-01T01:09:13;10.50;99.90
33594;DHT22;19920;52.242;20.940;2023-04-01T01:11:49;10.50;99.90
33594;DHT22;19920;52.242;20.940;2023-04-01T01:16:48;10.40;99.90
33594;DHT22;19920;52.242;20.940;2023-04-01T01:28:19;10.40;99.90
33594;DHT22;19920;52.242;20.940;2023-04-01T01:34:02;10.30;99.90
33594;DHT22;19920;52.242;20.940;2023-04-01T01:36:33;10.40;99.90
33594;DHT22;19920;52.242;20.940;2023-04-01T01:39:06;10.40;99.90
33594;DHT22;19920;52.242;20.940;2023-04-01T01:41:34;10.40;99.90
33594;DHT22;19920;52.242;20.940;2023-04-01T01:44:02;10.40;99.90
33594;DHT22;19920;52.242;20.940;2023-04-01T01:46:30;10.40;99.90
33594;DHT22;19920;52.242;20.940;2023-04-01T01:48:57;10.50;99.90
33594;DHT22;19920;52.242;20.940;2023-04-01T01:51:27;10.50;99.90
33594;DHT22;19920;52.242;20.940;2023-04-01T01:53:53;10.50;99.90
33594;DHT22;19920;52.242;20.940;2023-04-01T01:56:21;10.60;99.90
33594;DHT22;19920;52.242;20.940;2023-04-01T01:58:52;10.70;99.90
33594;DHT22;19920;52.242;20.940;2023-04-01T02:01:25;10.60;99.90
33594;DHT22;19920;52.242;20.940;2023-04-01T02:03:52;10.60;99.90
33594;DHT22;19920;52.242;20.940;2023-04-01T02:06:21;10.70;99.90
33594;DHT22;19920;52.242;20.940;2023-04-01T02:08:53;10.70;99.90
33594;DHT22;19920;52.242;20.940;2023-04-01T02:11:29;10.70;99.90
33594;DHT22;19920;52.242;20.940;2023-04-01T02:14:00;10.60;99.90
33594;DHT22;19920;52.242;20.940;2023-04-01T02:16:43;10.60;99.90
33594;DHT22;19920;52.242;20.940;2023-04-01T02:19:12;10.60;99.90
33594;DHT22;19920;52.242;20.940;2023-04-01T02:21:39;10.60;99.90
33594;DHT22;19920;52.242;20.940;2023-04-01T02:24:11;10.70;99.90
33594;DHT22;19920;52.242;20.940;2023-04-01T02:26:38;10.60;99.90
33594;DHT22;19920;52.242;20.940;2023-04-01T02:29:08;10.60;99.90
33594;DHT22;19920;52.242;20.940;2023-04-01T02:31:35;10.60;99.90
33594;DHT22;19920;52.242;20.940;2023-04-01T02:34:02;10.60;99.90
33594;DHT22;19920;52.242;20.940;2023-04-01T02:36:28;10.60;99.90
33594;DHT22;19920;52.242;20.940;2023-04-01T02:38:55;10.60;99.90
33594;DHT22;19920;52.242;20.940;2023-04-01T02:41:24;10.60;99.90
33594;DHT22;19920;52.242;20.940;2023-04-01T02:43:50;10.50;99.90
33594;DHT22;19920;52.242;20.940;2023-04-01T02:46:15;10.50;99.90
33594;DHT22;19920;52.242;20.940;2023-04-01T02:48:41;10.40;99.90
33594;DHT22;19920;52.242;20.940;2023-04-01T02:51:07;10.40;99.90
33594;DHT22;19920;52.242;20.940;2023-04-01T02:53:33;10.40;99.90
33594;DHT22;19920;52.242;20.940;2023-04-01T02:55:59;10.30;99.90
33594;DHT22;19920;52.242;20.940;2023-04-01T02:58:24;10.30;99.90
33594;DHT22;19920;52.242;20.940;2023-04-01T03:00:50;10.20;99.90
33594;DHT22;19920;52.242;20.940;2023-04-01T03:03:16;10.10;99.90
33594;DHT22;19920;52.242;20.940;2023-04-01T03:05:42;10.10;99.90
33594;DHT22;19920;52.242;20.940;2023-04-01T03:08:07;10.20;99.90
33594;DHT22;19920;52.242;20.940;2023-04-01T03:10:33;10.20;99.90
33594;DHT22;19920;52.242;20.940;2023-04-01T03:12:58;10.20;99.90
33594;DHT22;19920;52.242;20.940;2023-04-01T03:15:24;10.20;99.90
33594;DHT22;19920;52.242;20.940;2023-04-01T03:17:50;10.20;99.90
33594;DHT22;19920;52.242;20.940;2023-04-01T03:20:16;10.20;99.90
33594;DHT22;19920;52.242;20.940;2023-04-01T03:22:42;10.20;99.90
33594;DHT22;19920;52.242;20.940;2023-04-01T03:25:08;10.20;99.90
33594;DHT22;19920;52.242;20.940;2023-04-01T03:27:35;10.30;99.90
33594;DHT22;19920;52.242;20.940;2023-04-01T03:30:05;10.30;99.90
33594;DHT22;19920;52.242;20.940;2023-04-01T03:32:31;10.30;99.90
33594;DHT22;19920;52.242;20.940;2023-04-01T03:34:56;10.20;99.90
33594;DHT22;19920;52.242;20.940;2023-04-01T03:37:23;10.20;99.90
33594;DHT22;19920;52.242;20.940;2023-04-01T03:39:49;10.20;99.90
33594;DHT22;19920;52.242;20.940;2023-04-01T03:42:14;10.20;99.90
33594;DHT22;19920;52.242;20.940;2023-04-01T03:44:40;10.20;99.90
33594;DHT22;19920;52.242;20.940;2023-04-01T03:47:06;10.20;99.90
33594;DHT22;19920;52.242;20.940;2023-04-01T03:49:33;10.20;99.90
33594;DHT22;19920;52.242;20.940;2023-04-01T03:51:58;10.10;99.90
33594;DHT22;19920;52.242;20.940;2023-04-01T03:54:24;10.20;99.90
33594;DHT22;19920;52.242;20.940;2023-04-01T03:56:50;10.20;99.90
33594;DHT22;19920;52.242;20.940;2023-04-01T03:59:16;10.20;99.90
33594;DHT22;19920;52.242;20.940;2023-04-01T04:01:41;10.10;99.90
33594;DHT22;19920;52.242;20.940;2023-04-01T04:04:07;10.20;99.90
33594;DHT22;19920;52.242;20.940;2023-04-01T04:06:36;10.10;99.90
33594;DHT22;19920;52.242;20.940;2023-04-01T04:09:01;10.20;99.90
33594;DHT22;19920;52.242;20.940;2023-04-01T04:11:27;10.10;99.90
33594;DHT22;19920;52.242;20.940;2023-04-01T04:13:53;10.10;99.90
33594;DHT22;19920;52.242;20.940;2023-04-01T04:16:18;10.10;99.90
33594;DHT22;19920;52.242;20.940;2023-04-01T04:18:44;10.10;99.90
33594;DHT22;19920;52.242;20.940;2023-04-01T04:21:14;10.20;99.90
33594;DHT22;19920;52.242;20.940;2023-04-01T04:23:40;10.20;99.90
33594;DHT22;19920;52.242;20.940;2023-04-01T04:26:09;10.10;99.90
33594;DHT22;19920;52.242;20.940;2023-04-01T04:28:34;10.10;99.90
33594;DHT22;19920;52.242;20.940;2023-04-01T04:31:00;10.10;99.90
33594;DHT22;19920;52.242;20.940;2023-04-01T04:33:27;10.10;99.90
33594;DHT22;19920;52.242;20.940;2023-04-01T04:35:55;10.10;99.90
33594;DHT22;19920;52.242;20.940;2023-04-01T04:38:21;10.10;99.90
33594;DHT22;19920;52.242;20.940;2023-04-01T04:40:47;10.10;99.90
33594;DHT22;19920;52.242;20.940;2023-04-01T04:43:15;10.10;99.90
33594;DHT22;19920;52.242;20.940;2023-04-01T04:45:41;10.10;99.90
33594;DHT22;19920;52.242;20.940;2023-04-01T04:48:11;10.10;99.90
33594;DHT22;19920;52.242;20.940;2023-04-01T04:50:42;10.00;99.90
33594;DHT22;19920;52.242;20.940;2023-04-01T04:53:14;10.10;99.90
33594;DHT22;19920;52.242;20.940;2023-04-01T04:55:48;10.00;99.90
33594;DHT22;19920;52.242;20.940;2023-04-01T04:58:14;10.00;99.90
33594;DHT22;19920;52.242;20.940;2023-04-01T05:00:40;10.00;99.90
33594;DHT22;19920;52.242;20.940;2023-04-01T05:03:05;9.90;99.90
33594;DHT22;19920;52.242;20.940;2023-04-01T05:05:31;10.00;99.90
33594;DHT22;19920;52.242;20.940;2023-04-01T05:07:57;9.90;99.90
33594;DHT22;19920;52.242;20.940;2023-04-01T05:10:22;10.00;99.90
33594;DHT22;19920;52.242;20.940;2023-04-01T05:12:48;10.00;99.90
33594;DHT22;19920;52.242;20.940;2023-04-01T05:15:13;9.90;99.90
33594;DHT22;19920;52.242;20.940;2023-04-01T05:17:40;10.00;99.90
33594;DHT22;19920;52.242;20.940;2023-04-01T05:20:06;9.90;99.90
33594;DHT22;19920;52.242;20.940;2023-04-01T05:22:32;9.90;99.90
33594;DHT22;19920;52.242;20.940;2023-04-01T05:24:58;10.00;99.90
33594;DHT22;19920;52.242;20.940;2023-04-01T05:27:23;9.90;99.90
33594;DHT22;19920;52.242;20.940;2023-04-01T05:29:49;10.00;99.90
33594;DHT22;19920;52.242;20.940;2023-04-01T05:32:15;10.00;99.90
33594;DHT22;19920;52.242;20.940;2023-04-01T05:34:40;10.00;99.90
33594;DHT22;19920;52.242;20.940;2023-04-01T05:37:06;10.10;99.90
33594;DHT22;19920;52.242;20.940;2023-04-01T05:39:36;10.10;99.90
33594;DHT22;19920;52.242;20.940;2023-04-01T05:42:03;10.20;99.90
33594;DHT22;19920;52.242;20.940;2023-04-01T05:44:30;10.10;99.90
33594;DHT22;19920;52.242;20.940;2023-04-01T05:46:56;10.10;99.90
33594;DHT22;19920;52.242;20.940;2023-04-01T05:49:21;10.10;99.90
33594;DHT22;19920;52.242;20.940;2023-04-01T05:51:47;10.10;99.90
33594;DHT22;19920;52.242;20.940;2023-04-01T05:54:13;10.20;99.90
33594;DHT22;19920;52.242;20.940;2023-04-01T05:56:38;10.30;99.90
33594;DHT22;19920;52.242;20.940;2023-04-01T05:59:04;10.50;99.90
33594;DHT22;19920;52.242;20.940;2023-04-01T06:01:30;10.60;99.90
33594;DHT22;19920;52.242;20.940;2023-04-01T06:03:55;10.70;99.90
33594;DHT22;19920;52.242;20.940;2023-04-01T06:06:29;10.70;99.90
33594;DHT22;19920;52.242;20.940;2023-04-01T06:08:58;10.70;99.90
33594;DHT22;19920;52.242;20.940;2023-04-01T06:14:23;10.90;99.90
33594;DHT22;19920;52.242;20.940;2023-04-01T06:31:03;10.90;99.90
33594;DHT22;19920;52.242;20.940;2023-04-01T06:41:55;10.80;99.90
33594;DHT22;19920;52.242;20.940;2023-04-01T06:55:47;11.10;99.90
33594;DHT22;19920;52.242;20.940;2023-04-01T06:58:29;11.40;99.90
33594;DHT22;19920;52.242;20.940;2023-04-01T07:01:04;11.50;99.90
33594;DHT22;19920;52.242;20.940;2023-04-01T07:03:40;11.60;99.90
33594;DHT22;19920;52.242;20.940;2023-04-01T07:06:58;11.80;99.90
33594;DHT22;19920;52.242;20.940;2023-04-01T07:09:00;11.60;99.90
33594;DHT22;19920;52.242;20.940;2023-04-01T07:11:31;11.70;99.90
33594;DHT22;19920;52.242;20.940;2023-04-01T07:16:45;11.50;99.90
33594;DHT22;19920;52.242;20.940;2023-04-01T07:20:02;11.40;99.90
33594;DHT22;19920;52.242;20.940;2023-04-01T07:22:39;11.60;99.90
33594;DHT22;19920;52.242;20.940;2023-04-01T07:25:17;11.60;99.90
33594;DHT22;19920;52.242;20.940;2023-04-01T07:27:45;11.70;99.90
33594;DHT22;19920;52.242;20.940;2023-04-01T07:30:20;11.70;99.90
33594;DHT22;19920;52.242;20.940;2023-04-01T07:38:10;11.80;99.90
33594;DHT22;19920;52.242;20.940;2023-04-01T07:43:19;11.70;99.90
33594;DHT22;19920;52.242;20.940;2023-04-01T07:46:09;11.70;99.90
33594;DHT22;19920;52.242;20.940;2023-04-01T08:02:43;11.90;99.90
33594;DHT22;19920;52.242;20.940;2023-04-01T08:06:12;12.10;99.90
33594;DHT22;19920;52.242;20.940;2023-04-01T08:10:57;12.20;99.90
33594;DHT22;19920;52.242;20.940;2023-04-01T08:13:44;12.10;99.90
33594;DHT22;19920;52.242;20.940;2023-04-01T08:16:22;12.00;99.90
33594;DHT22;19920;52.242;20.940;2023-04-01T08:19:03;12.00;99.90
33594;DHT22;19920;52.242;20.940;2023-04-01T08:21:41;12.00;99.90
33594;DHT22;19920;52.242;20.940;2023-04-01T08:24:19;11.70;99.90
33594;DHT22;19920;52.242;20.940;2023-04-01T08:26:51;11.40;99.90
33594;DHT22;19920;52.242;20.940;2023-04-01T08:29:31;11.50;99.90
33594;DHT22;19920;52.242;20.940;2023-04-01T08:32:08;11.80;99.90
33594;DHT22;19920;52.242;20.940;2023-04-01T08:34:42;12.20;99.90
33594;DHT22;19920;52.242;20.940;2023-04-01T08:37:17;12.50;99.90
33594;DHT22;19920;52.242;20.940;2023-04-01T08:39:48;12.70;99.90
33594;DHT22;19920;52.242;20.940;2023-04-01T08:45:23;13.00;99.90
33594;DHT22;19920;52.242;20.940;2023-04-01T08:51:16;12.90;99.90
33594;DHT22;19920;52.242;20.940;2023-04-01T09:08:35;12.50;99.90
33594;DHT22;19920;52.242;20.940;2023-04-01T09:23:09;11.90;99.90
33594;DHT22;19920;52.242;20.940;2023-04-01T09:25:51;11.70;99.90
33594;DHT22;19920;52.242;20.940;2023-04-01T09:28:42;11.60;99.90
33594;DHT22;19920;52.242;20.940;2023-04-01T09:37:17;12.10;99.90
33594;DHT22;19920;52.242;20.940;2023-04-01T09:40:14;12.00;99.90
33594;DHT22;19920;52.242;20.940;2023-04-01T09:43:15;12.10;99.90
33594;DHT22;19920;52.242;20.940;2023-04-01T09:48:19;12.40;99.90
33594;DHT22;19920;52.242;20.940;2023-04-01T09:53:41;12.50;99.90
33594;DHT22;19920;52.242;20.940;2023-04-01T10:05:33;11.70;99.90
33594;DHT22;19920;52.242;20.940;2023-04-01T10:27:34;12.80;99.90
33594;DHT22;19920;52.242;20.940;2023-04-01T10:30:14;13.00;99.90
33594;DHT22;19920;52.242;20.940;2023-04-01T10:35:44;13.10;99.90
33594;DHT22;19920;52.242;20.940;2023-04-01T10:38:46;13.00;99.90
33594;DHT22;19920;52.242;20.940;2023-04-01T10:50:07;13.20;99.90
33594;DHT22;19920;52.242;20.940;2023-04-01T10:52:59;13.20;99.90
33594;DHT22;19920;52.242;20.940;2023-04-01T11:12:04;13.60;99.90
33594;DHT22;19920;52.242;20.940;2023-04-01T11:18:11;13.60;99.90
33594;DHT22;19920;52.242;20.940;2023-04-01T11:21:23;13.50;99.90
33594;DHT22;19920;52.242;20.940;2023-04-01T11:29:04;13.20;99.90
33594;DHT22;19920;52.242;20.940;2023-04-01T11:31:43;13.00;99.90
33594;DHT22;19920;52.242;20.940;2023-04-01T11:34:14;13.00;99.90
33594;DHT22;19920;52.242;20.940;2023-04-01T11:37:02;12.90;99.90
33594;DHT22;19920;52.242;20.940;2023-04-01T11:45:50;12.00;99.90
33594;DHT22;19920;52.242;20.940;2023-04-01T11:48:51;12.10;99.90
33594;DHT22;19920;52.242;20.940;2023-04-01T11:51:26;12.20;99.90
33594;DHT22;19920;52.242;20.940;2023-04-01T12:08:36;13.70;99.90
33594;DHT22;19920;52.242;20.940;2023-04-01T12:11:29;13.30;99.90
33594;DHT22;19920;52.242;20.940;2023-04-01T12:14:16;13.20;99.90
33594;DHT22;19920;52.242;20.940;2023-04-01T12:20:05;13.50;99.90
33594;DHT22;19920;52.242;20.940;2023-04-01T12:31:17;13.90;99.90
33594;DHT22;19920;52.242;20.940;2023-04-01T12:33:56;13.80;99.90
33594;DHT22;19920;52.242;20.940;2023-04-01T12:36:35;14.20;99.90
33594;DHT22;19920;52.242;20.940;2023-04-01T12:39:29;14.50;99.90
33594;DHT22;19920;52.242;20.940;2023-04-01T12:55:44;14.10;99.90
33594;DHT22;19920;52.242;20.940;2023-04-01T13:04:27;13.50;99.90
33594;DHT22;19920;52.242;20.940;2023-04-01T13:07:28;13.20;99.90
33594;DHT22;19920;52.242;20.940;2023-04-01T13:18:16;12.30;99.90
33594;DHT22;19920;52.242;20.940;2023-04-01T13:23:29;11.80;99.90
33594;DHT22;19920;52.242;20.940;2023-04-01T13:42:49;11.70;99.90
33594;DHT22;19920;52.242;20.940;2023-04-01T13:45:38;11.70;99.90
33594;DHT22;19920;52.242;20.940;2023-04-01T14:07:42;11.40;99.90
33594;DHT22;19920;52.242;20.940;2023-04-01T14:10:19;11.30;99.90
33594;DHT22;19920;52.242;20.940;2023-04-01T14:15:33;11.20;99.90
33594;DHT22;19920;52.242;20.940;2023-04-01T14:20:39;11.00;99.90
33594;DHT22;19920;52.242;20.940;2023-04-01T14:34:55;10.70;99.90
33594;DHT22;19920;52.242;20.940;2023-04-01T14:46:27;10.40;99.90
33594;DHT22;19920;52.242;20.940;2023-04-01T14:49:51;10.50;99.90
33594;DHT22;19920;52.242;20.940;2023-04-01T14:51:52;10.60;99.90
33594;DHT22;19920;52.242;20.940;2023-04-01T14:54:21;10.50;99.90
33594;DHT22;19920;52.242;20.940;2023-04-01T14:57:16;10.50;99.90
33594;DHT22;19920;52.242;20.940;2023-04-01T14:59:51;10.50;99.90
33594;DHT22;19920;52.242;20.940;2023-04-01T15:02:42;10.40;99.90
33594;DHT22;19920;52.242;20.940;2023-04-01T15:08:03;10.30;99.90
33594;DHT22;19920;52.242;20.940;2023-04-01T15:27:47;10.30;99.90
33594;DHT22;19920;52.242;20.940;2023-04-01T15:33:24;10.30;99.90
33594;DHT22;19920;52.242;20.940;2023-04-01T15:36:20;10.40;99.90
33594;DHT22;19920;52.242;20.940;2023-04-01T15:38:58;10.40;99.90
33594;DHT22;19920;52.242;20.940;2023-04-01T15:44:37;10.50;99.90
33594;DHT22;19920;52.242;20.940;2023-04-01T16:01:16;10.20;99.90
33594;DHT22;19920;52.242;20.940;2023-04-01T16:10:31;10.10;99.90
33594;DHT22;19920;52.242;20.940;2023-04-01T16:16:01;10.20;99.90
33594;DHT22;19920;52.242;20.940;2023-04-01T16:18:56;10.20;99.90
33594;DHT22;19920;52.242;20.940;2023-04-01T16:21:45;10.30;99.90
33594;DHT22;19920;52.242;20.940;2023-04-01T16:24:19;10.30;99.90
33594;DHT22;19920;52.242;20.940;2023-04-01T16:42:58;10.00;99.90
33594;DHT22;19920;52.242;20.940;2023-04-01T16:45:38;9.90;99.90
33594;DHT22;19920;52.242;20.940;2023-04-01T16:48:17;9.80;99.90
33594;DHT22;19920;52.242;20.940;2023-04-01T16:51:04;9.80;99.90
33594;DHT22;19920;52.242;20.940;2023-04-01T16:53:52;9.80;99.90
33594;DHT22;19920;52.242;20.940;2023-04-01T16:56:24;9.80;99.90
33594;DHT22;19920;52.242;20.940;2023-04-01T16:59:13;9.80;99.90
33594;DHT22;19920;52.242;20.940;2023-04-01T17:01:53;9.80;99.90
33594;DHT22;19920;52.242;20.940;2023-04-01T17:07:01;9.90;99.90
33594;DHT22;19920;52.242;20.940;2023-04-01T17:11:57;9.80;99.90
33594;DHT22;19920;52.242;20.940;2023-04-01T17:37:05;9.50;99.90
33594;DHT22;19920;52.242;20.940;2023-04-01T17:45:54;9.40;99.90
33594;DHT22;19920;52.242;20.940;2023-04-01T17:48:45;9.30;99.90
33594;DHT22;19920;52.242;20.940;2023-04-01T17:56:59;9.00;99.90
33594;DHT22;19920;52.242;20.940;2023-04-01T17:59:38;9.00;99.90
33594;DHT22;19920;52.242;20.940;2023-04-01T18:02:29;9.00;99.90
33594;DHT22;19920;52.242;20.940;2023-04-01T18:07:55;9.00;99.90
33594;DHT22;19920;52.242;20.940;2023-04-01T18:19:14;8.90;99.90
33594;DHT22;19920;52.242;20.940;2023-04-01T18:27:51;8.80;99.90
33594;DHT22;19920;52.242;20.940;2023-04-01T18:30:27;8.80;99.90
33594;DHT22;19920;52.242;20.940;2023-04-01T18:33:02;8.70;99.90
33594;DHT22;19920;52.242;20.940;2023-04-01T18:35:54;8.70;99.90
33594;DHT22;19920;52.242;20.940;2023-04-01T18:38:30;8.70;99.90
33594;DHT22;19920;52.242;20.940;2023-04-01T18:47:10;8.80;99.90
33594;DHT22;19920;52.242;20.940;2023-04-01T18:52:22;8.80;99.90
33594;DHT22;19920;52.242;20.940;2023-04-01T18:57:53;8.70;99.90
33594;DHT22;19920;52.242;20.940;2023-04-01T19:00:26;8.70;99.90
33594;DHT22;19920;52.242;20.940;2023-04-01T19:03:06;8.70;99.90
33594;DHT22;19920;52.242;20.940;2023-04-01T19:05:45;8.70;99.90
33594;DHT22;19920;52.242;20.940;2023-04-01T19:13:22;8.60;99.90
33594;DHT22;19920;52.242;20.940;2023-04-01T19:16:06;8.60;99.90
33594;DHT22;19920;52.242;20.940;2023-04-01T19:21:42;8.50;99.90
33594;DHT22;19920;52.242;20.940;2023-04-01T19:38:22;8.50;99.90
33594;DHT22;19920;52.242;20.940;2023-04-01T19:41:08;8.50;99.90
33594;DHT22;19920;52.242;20.940;2023-04-01T19:43:50;8.50;99.90
33594;DHT22;19920;52.242;20.940;2023-04-01T19:51:43;8.50;99.90
33594;DHT22;19920;52.242;20.940;2023-04-01T20:02:44;8.50;99.90
33594;DHT22;19920;52.242;20.940;2023-04-01T20:14:13;8.50;99.90
33594;DHT22;19920;52.242;20.940;2023-04-01T20:16:48;8.50;99.90
33594;DHT22;19920;52.242;20.940;2023-04-01T20:19:26;8.50;99.90
33594;DHT22;19920;52.242;20.940;2023-04-01T20:21:57;8.40;99.90
33594;DHT22;19920;52.242;20.940;2023-04-01T20:24:30;8.30;99.90
33594;DHT22;19920;52.242;20.940;2023-04-01T20:27:26;8.30;99.90
33594;DHT22;19920;52.242;20.940;2023-04-01T20:41:34;8.10;99.90
33594;DHT22;19920;52.242;20.940;2023-04-01T20:44:26;8.10;99.90
33594;DHT22;19920;52.242;20.940;2023-04-01T20:47:54;7.90;99.90
33594;DHT22;19920;52.242;20.940;2023-04-01T20:53:15;7.80;99.90
33594;DHT22;19920;52.242;20.940;2023-04-01T21:01:54;7.70;99.90
33594;DHT22;19920;52.242;20.940;2023-04-01T21:07:15;7.70;99.90
33594;DHT22;19920;52.242;20.940;2023-04-01T21:12:53;7.60;99.90
33594;DHT22;19920;52.242;20.940;2023-04-01T21:15:26;7.60;99.90
33594;DHT22;19920;52.242;20.940;2023-04-01T21:21:26;7.60;99.90
33594;DHT22;19920;52.242;20.940;2023-04-01T21:32:17;7.70;99.90
33594;DHT22;19920;52.242;20.940;2023-04-01T21:34:51;7.60;99.90
33594;DHT22;19920;52.242;20.940;2023-04-01T21:48:53;7.80;99.90
33594;DHT22;19920;52.242;20.940;2023-04-01T22:13:36;7.80;99.90
33594;DHT22;19920;52.242;20.940;2023-04-01T22:18:43;7.80;99.90
33594;DHT22;19920;52.242;20.940;2023-04-01T22:21:17;7.70;99.90
33594;DHT22;19920;52.242;20.940;2023-04-01T22:23:51;7.70;99.90
33594;DHT22;19920;52.242;20.940;2023-04-01T22:26:42;7.60;99.90
33594;DHT22;19920;52.242;20.940;2023-04-01T22:29:20;7.60;99.90
33594;DHT22;19920;52.242;20.940;2023-04-01T22:32:02;7.60;99.90
33594;DHT22;19920;52.242;20.940;2023-04-01T22:43:47;7.50;99.90
33594;DHT22;19920;52.242;20.940;2023-04-01T22:51:54;7.40;99.90
33594;DHT22;19920;52.242;20.940;2023-04-01T22:54:32;7.40;99.90
33594;DHT22;19920;52.242;20.940;2023-04-01T22:57:28;7.40;99.90
33594;DHT22;19920;52.242;20.940;2023-04-01T23:05:26;7.40;99.90
33594;DHT22;19920;52.242;20.940;2023-04-01T23:08:06;7.40;
33594;DHT22;19920;52.242;20.940;2023-04-01T23:10:42;7.40;99.90
33594;DHT22;19920;52.242;20.940;2023-04-01T23:13:18;7.40;99.90
33594;DHT22;19920;52.242;20.940;2023-04-01T23:15:44;7.40;99.90
33594;DHT22;19920;52.242;20.940;2023-04-01T23:18:24;7.40;99.90
33594;DHT22;19920;52.242;20.940;2023-04-01T23:21:00;7.30;99.90
33594;DHT22;19920;52.242;20.940;2023-04-01T23:26:32;7.50;99.90
33594;DHT22;19920;52.242;20.940;2023-04-01T23:28:59;7.50;99.90
33594;DHT22;19920;52.242;20.940;2023-04-01T23:31:26;7.60;99.90
33594;DHT22;19920;52.242;20.940;2023-04-01T23:36:46;7.60;99.90
33594;DHT22;19920;52.242;20.940;2023-04-01T23:44:51;7.60;99.90
33594;DHT22;19920;52.242;20.940;2023-04-01T23:47:22;7.60;99.90
33594;DHT22;19920;52.242;20.940;2023-04-01T23:52:26;7.60;99.90
33594;DHT22;19920;52.242;20.940;2023-04-01T23:55:24;7.50;99.90
